首页
METAR-TAF:

METAR-TAF

机场 :

埃德蒙顿国际机场

埃德蒙顿, 艾伯塔, 加拿大

纬度: 53-18N, 经度: 113-35W, 海拔: 715米

当前天气观测

该预报发布于40分钟前的01:30 UTC
风速2节,风向南转西南
温度 0°C
湿度 55%
气压 1021 hPa
能見度: 32.2公里
少量云层高于25000英尺

METAR: CYEG 220130Z 20002KT 20SM FEW250 00/M08 A3016 RMK CI2 SLP250

时间: 20:10 (02:10 UTC)

预报

该预报发布于2小时和30分钟前的23:40 UTC
预报有效从22日的 00点(UTC)到 22日的 24点(UTC)
风速5节,风向北转西北
能見度: 10公里
天空无云
成为
从 22日的 04点(UTC)到 22日的 06点(UTC)
风速4节,风向东转东南
成为
从 22日的 12点(UTC)到 22日的 14点(UTC)
风速10节,风向东南
从 22日的 1700点(UTC)
风速12节,风向南转南东
能見度: 10公里
天空无云
成为
从 22日的 18点(UTC)到 22日的 20点(UTC)
风速15节,风向南转南东,有时为25节阵风

TAF: CYEG 212340Z 2200/2224 33005KT P6SM SKC BECMG 2204/2206 12004KT BECMG 2212/2214 14010KT FM221700 16012KT P6SM SKC BECMG 2218/2220 16015G25KT RMK NXT FCST BY 220300Z

超过4000个机场的气象观测和天气预报(METAR&TAF报告)。

可查询的气象台以黄色和红色小点在地图上表示。

将鼠标移到小点上方,可查看气象台名称。

然后点击查看天气观测和预报。

如需切换地图:点击带黑十字的绿色按钮放大地图;点击带横线的绿色按钮缩小地图;或者点击绿色箭头查看邻近地区的地图。


METAR-TAF: